sensor_id;sensor_type;location;lat;lon;timestamp;temperature;humidity
70826;SHT31;58446;41.490;22.098;2023-05-10T00:02:06;13.55;81.33
70826;SHT31;58446;41.490;22.098;2023-05-10T00:04:32;13.58;81.85
70826;SHT31;58446;41.490;22.098;2023-05-10T00:06:58;13.57;82.36
70826;SHT31;58446;41.490;22.098;2023-05-10T00:09:23;13.51;81.33
70826;SHT31;58446;41.490;22.098;2023-05-10T00:11:49;13.51;81.36
70826;SHT31;58446;41.490;22.098;2023-05-10T00:14:15;13.55;81.40
70826;SHT31;58446;41.490;22.098;2023-05-10T00:16:41;13.71;82.31
70826;SHT31;58446;41.490;22.098;2023-05-10T00:19:07;13.64;81.31
70826;SHT31;58446;41.490;22.098;2023-05-10T00:21:33;13.69;80.78
70826;SHT31;58446;41.490;22.098;2023-05-10T00:23:59;13.65;81.18
70826;SHT31;58446;41.490;22.098;2023-05-10T00:26:25;13.47;81.25
70826;SHT31;58446;41.490;22.098;2023-05-10T00:28:50;13.40;81.53
70826;SHT31;58446;41.490;22.098;2023-05-10T00:31:16;13.58;82.32
70826;SHT31;58446;41.490;22.098;2023-05-10T00:33:42;13.79;80.79
70826;SHT31;58446;41.490;22.098;2023-05-10T00:36:08;13.88;80.41
70826;SHT31;58446;41.490;22.098;2023-05-10T00:38:34;13.92;79.92
70826;SHT31;58446;41.490;22.098;2023-05-10T00:40:59;13.71;80.26
70826;SHT31;58446;41.490;22.098;2023-05-10T00:43:25;13.55;80.82
70826;SHT31;58446;41.490;22.098;2023-05-10T00:45:51;13.50;81.00
70826;SHT31;58446;41.490;22.098;2023-05-10T00:48:18;13.53;81.18
70826;SHT31;58446;41.490;22.098;2023-05-10T00:50:44;13.37;80.89
70826;SHT31;58446;41.490;22.098;2023-05-10T00:53:10;13.33;80.98
70826;SHT31;58446;41.490;22.098;2023-05-10T00:55:36;13.26;81.35
70826;SHT31;58446;41.490;22.098;2023-05-10T00:58:03;13.37;81.51
70826;SHT31;58446;41.490;22.098;2023-05-10T01:00:29;13.30;81.25
70826;SHT31;58446;41.490;22.098;2023-05-10T01:02:57;13.47;81.74
70826;SHT31;58446;41.490;22.098;2023-05-10T01:05:23;13.64;81.37
70826;SHT31;58446;41.490;22.098;2023-05-10T01:07:48;13.51;80.44
70826;SHT31;58446;41.490;22.098;2023-05-10T01:10:14;13.37;80.84
70826;SHT31;58446;41.490;22.098;2023-05-10T01:12:43;13.41;81.01
70826;SHT31;58446;41.490;22.098;2023-05-10T01:15:10;13.50;81.01
70826;SHT31;58446;41.490;22.098;2023-05-10T01:17:38;13.69;80.47
70826;SHT31;58446;41.490;22.098;2023-05-10T01:20:06;13.77;80.21
70826;SHT31;58446;41.490;22.098;2023-05-10T01:25:29;13.64;79.73
70826;SHT31;58446;41.490;22.098;2023-05-10T01:36:26;13.72;79.81
70826;SHT31;58446;41.490;22.098;2023-05-10T01:39:10;13.53;79.68
70826;SHT31;58446;41.490;22.098;2023-05-10T01:48:02;13.50;80.94
70826;SHT31;58446;41.490;22.098;2023-05-10T01:50:30;13.51;81.06
70826;SHT31;58446;41.490;22.098;2023-05-10T01:52:58;13.57;80.81
70826;SHT31;58446;41.490;22.098;2023-05-10T01:55:28;13.53;81.03
70826;SHT31;58446;41.490;22.098;2023-05-10T01:58:02;13.51;81.15
70826;SHT31;58446;41.490;22.098;2023-05-10T02:00:29;13.50;81.51
70826;SHT31;58446;41.490;22.098;2023-05-10T02:02:57;13.55;81.07
70826;SHT31;58446;41.490;22.098;2023-05-10T02:05:24;13.36;81.53
70826;SHT31;58446;41.490;22.098;2023-05-10T02:07:51;13.43;81.51
70826;SHT31;58446;41.490;22.098;2023-05-10T02:10:18;13.34;81.44
70826;SHT31;58446;41.490;22.098;2023-05-10T02:12:47;13.37;81.64
70826;SHT31;58446;41.490;22.098;2023-05-10T02:15:18;13.34;81.62
70826;SHT31;58446;41.490;22.098;2023-05-10T02:17:46;13.33;81.95
70826;SHT31;58446;41.490;22.098;2023-05-10T02:20:14;13.38;81.58
70826;SHT31;58446;41.490;22.098;2023-05-10T02:22:41;13.44;81.71
70826;SHT31;58446;41.490;22.098;2023-05-10T02:25:08;13.40;81.75
70826;SHT31;58446;41.490;22.098;2023-05-10T02:27:36;13.34;81.52
70826;SHT31;58446;41.490;22.098;2023-05-10T02:30:02;13.57;81.45
70826;SHT31;58446;41.490;22.098;2023-05-10T02:32:29;13.43;81.54
70826;SHT31;58446;41.490;22.098;2023-05-10T02:34:56;13.43;81.53
70826;SHT31;58446;41.490;22.098;2023-05-10T02:37:22;13.40;81.66
70826;SHT31;58446;41.490;22.098;2023-05-10T02:39:50;13.50;81.60
70826;SHT31;58446;41.490;22.098;2023-05-10T02:42:24;13.47;81.45
70826;SHT31;58446;41.490;22.098;2023-05-10T02:44:53;13.44;81.83
70826;SHT31;58446;41.490;22.098;2023-05-10T02:47:20;13.44;81.74
70826;SHT31;58446;41.490;22.098;2023-05-10T02:49:46;13.44;82.09
70826;SHT31;58446;41.490;22.098;2023-05-10T02:52:23;13.27;82.16
70826;SHT31;58446;41.490;22.098;2023-05-10T02:54:52;13.23;82.29
70826;SHT31;58446;41.490;22.098;2023-05-10T02:57:28;13.21;82.64
70826;SHT31;58446;41.490;22.098;2023-05-10T02:59:56;13.17;82.68
70826;SHT31;58446;41.490;22.098;2023-05-10T03:02:23;13.14;82.83
70826;SHT31;58446;41.490;22.098;2023-05-10T03:04:48;13.04;82.81
70826;SHT31;58446;41.490;22.098;2023-05-10T03:07:14;12.96;83.47
70826;SHT31;58446;41.490;22.098;2023-05-10T03:09:41;13.16;83.18
70826;SHT31;58446;41.490;22.098;2023-05-10T03:12:27;13.08;83.07
70826;SHT31;58446;41.490;22.098;2023-05-10T03:18:12;13.18;82.80
70826;SHT31;58446;41.490;22.098;2023-05-10T03:23:35;13.16;82.78
70826;SHT31;58446;41.490;22.098;2023-05-10T03:26:01;13.13;82.56
70826;SHT31;58446;41.490;22.098;2023-05-10T03:28:28;13.02;82.97
70826;SHT31;58446;41.490;22.098;2023-05-10T03:30:56;12.95;83.30
70826;SHT31;58446;41.490;22.098;2023-05-10T03:33:22;13.06;82.89
70826;SHT31;58446;41.490;22.098;2023-05-10T03:35:48;13.14;82.79
70826;SHT31;58446;41.490;22.098;2023-05-10T03:38:13;13.13;82.78
70826;SHT31;58446;41.490;22.098;2023-05-10T03:40:39;13.08;82.71
70826;SHT31;58446;41.490;22.098;2023-05-10T03:43:05;13.18;82.41
70826;SHT31;58446;41.490;22.098;2023-05-10T03:45:31;13.16;82.76
70826;SHT31;58446;41.490;22.098;2023-05-10T03:47:57;13.34;81.80
70826;SHT31;58446;41.490;22.098;2023-05-10T03:50:23;13.41;81.34
70826;SHT31;58446;41.490;22.098;2023-05-10T03:52:49;13.34;81.84
70826;SHT31;58446;41.490;22.098;2023-05-10T03:55:15;13.20;82.24
70826;SHT31;58446;41.490;22.098;2023-05-10T03:57:41;13.18;82.17
70826;SHT31;58446;41.490;22.098;2023-05-10T04:00:08;13.10;82.69
70826;SHT31;58446;41.490;22.098;2023-05-10T04:02:34;13.13;82.39
70826;SHT31;58446;41.490;22.098;2023-05-10T04:04:59;13.21;82.06
70826;SHT31;58446;41.490;22.098;2023-05-10T04:07:25;13.16;81.31
70826;SHT31;58446;41.490;22.098;2023-05-10T04:09:51;13.14;82.24
70826;SHT31;58446;41.490;22.098;2023-05-10T04:12:16;13.06;81.92
70826;SHT31;58446;41.490;22.098;2023-05-10T04:14:42;13.04;82.46
70826;SHT31;58446;41.490;22.098;2023-05-10T04:17:08;13.07;82.29
70826;SHT31;58446;41.490;22.098;2023-05-10T04:19:33;13.03;82.37
70826;SHT31;58446;41.490;22.098;2023-05-10T04:21:59;12.99;82.22
70826;SHT31;58446;41.490;22.098;2023-05-10T04:24:25;12.89;82.34
70826;SHT31;58446;41.490;22.098;2023-05-10T04:26:51;12.90;82.70
70826;SHT31;58446;41.490;22.098;2023-05-10T04:29:17;12.90;82.36
70826;SHT31;58446;41.490;22.098;2023-05-10T04:31:42;12.92;82.12
70826;SHT31;58446;41.490;22.098;2023-05-10T04:34:08;12.95;82.49
70826;SHT31;58446;41.490;22.098;2023-05-10T04:36:34;12.93;82.48
70826;SHT31;58446;41.490;22.098;2023-05-10T04:39:02;12.95;82.51
70826;SHT31;58446;41.490;22.098;2023-05-10T04:41:30;13.02;82.32
70826;SHT31;58446;41.490;22.098;2023-05-10T04:43:56;13.08;81.96
70826;SHT31;58446;41.490;22.098;2023-05-10T04:46:22;13.21;81.66
70826;SHT31;58446;41.490;22.098;2023-05-10T04:48:48;13.11;81.91
70826;SHT31;58446;41.490;22.098;2023-05-10T04:51:13;13.18;81.92
70826;SHT31;58446;41.490;22.098;2023-05-10T04:53:39;13.14;81.86
70826;SHT31;58446;41.490;22.098;2023-05-10T04:56:05;13.02;82.59
70826;SHT31;58446;41.490;22.098;2023-05-10T04:58:31;13.20;81.99
70826;SHT31;58446;41.490;22.098;2023-05-10T05:00:57;13.13;81.91
70826;SHT31;58446;41.490;22.098;2023-05-10T05:03:22;13.06;82.24
70826;SHT31;58446;41.490;22.098;2023-05-10T05:05:48;13.10;82.12
70826;SHT31;58446;41.490;22.098;2023-05-10T05:08:14;13.06;82.08
70826;SHT31;58446;41.490;22.098;2023-05-10T05:10:39;13.03;82.47
70826;SHT31;58446;41.490;22.098;2023-05-10T05:13:05;13.03;82.17
70826;SHT31;58446;41.490;22.098;2023-05-10T05:15:31;13.06;82.40
70826;SHT31;58446;41.490;22.098;2023-05-10T05:17:57;12.97;82.27
70826;SHT31;58446;41.490;22.098;2023-05-10T05:20:22;13.04;82.24
70826;SHT31;58446;41.490;22.098;2023-05-10T05:22:48;13.06;81.98
70826;SHT31;58446;41.490;22.098;2023-05-10T05:25:15;13.08;81.89
70826;SHT31;58446;41.490;22.098;2023-05-10T05:27:41;13.07;81.70
70826;SHT31;58446;41.490;22.098;2023-05-10T05:30:07;13.10;81.58
70826;SHT31;58446;41.490;22.098;2023-05-10T05:32:33;13.07;81.55
70826;SHT31;58446;41.490;22.098;2023-05-10T05:34:59;13.10;81.15
70826;SHT31;58446;41.490;22.098;2023-05-10T05:37:25;13.04;81.57
70826;SHT31;58446;41.490;22.098;2023-05-10T05:39:51;13.04;81.43
70826;SHT31;58446;41.490;22.098;2023-05-10T05:42:17;13.03;81.65
70826;SHT31;58446;41.490;22.098;2023-05-10T05:44:44;12.97;81.33
70826;SHT31;58446;41.490;22.098;2023-05-10T05:47:10;12.99;81.88
70826;SHT31;58446;41.490;22.098;2023-05-10T05:49:37;13.00;82.03
70826;SHT31;58446;41.490;22.098;2023-05-10T05:52:03;13.00;82.04
70826;SHT31;58446;41.490;22.098;2023-05-10T05:54:30;12.99;81.69
70826;SHT31;58446;41.490;22.098;2023-05-10T05:56:56;12.93;81.94
70826;SHT31;58446;41.490;22.098;2023-05-10T05:59:22;13.00;82.11
70826;SHT31;58446;41.490;22.098;2023-05-10T06:01:48;12.99;82.15
70826;SHT31;58446;41.490;22.098;2023-05-10T06:04:14;13.11;80.94
70826;SHT31;58446;41.490;22.098;2023-05-10T06:06:40;13.16;81.34
70826;SHT31;58446;41.490;22.098;2023-05-10T06:09:06;13.06;80.70
70826;SHT31;58446;41.490;22.098;2023-05-10T06:11:31;13.03;81.39
70826;SHT31;58446;41.490;22.098;2023-05-10T06:14:00;13.03;82.36
70826;SHT31;58446;41.490;22.098;2023-05-10T06:16:27;13.02;81.81
70826;SHT31;58446;41.490;22.098;2023-05-10T06:18:53;13.08;82.43
70826;SHT31;58446;41.490;22.098;2023-05-10T06:21:19;13.06;82.13
70826;SHT31;58446;41.490;22.098;2023-05-10T06:23:44;13.02;81.52
70826;SHT31;58446;41.490;22.098;2023-05-10T06:26:10;13.04;82.02
70826;SHT31;58446;41.490;22.098;2023-05-10T06:28:36;13.08;81.75
70826;SHT31;58446;41.490;22.098;2023-05-10T06:31:04;13.07;81.93
70826;SHT31;58446;41.490;22.098;2023-05-10T06:33:30;13.03;81.88
70826;SHT31;58446;41.490;22.098;2023-05-10T06:35:56;13.00;81.90
70826;SHT31;58446;41.490;22.098;2023-05-10T06:38:22;13.07;81.51
70826;SHT31;58446;41.490;22.098;2023-05-10T06:40:48;13.13;82.15
70826;SHT31;58446;41.490;22.098;2023-05-10T06:43:15;13.11;81.55
70826;SHT31;58446;41.490;22.098;2023-05-10T06:45:41;13.08;81.94
70826;SHT31;58446;41.490;22.098;2023-05-10T06:48:07;13.00;81.25
70826;SHT31;58446;41.490;22.098;2023-05-10T06:50:33;13.02;81.68
70826;SHT31;58446;41.490;22.098;2023-05-10T06:53:00;13.07;81.64
70826;SHT31;58446;41.490;22.098;2023-05-10T06:55:26;13.14;81.49
70826;SHT31;58446;41.490;22.098;2023-05-10T06:57:52;13.27;81.19
70826;SHT31;58446;41.490;22.098;2023-05-10T07:00:18;13.21;80.72
70826;SHT31;58446;41.490;22.098;2023-05-10T07:02:45;13.23;80.73
70826;SHT31;58446;41.490;22.098;2023-05-10T07:05:11;13.21;80.98
70826;SHT31;58446;41.490;22.098;2023-05-10T07:07:37;13.24;80.75
70826;SHT31;58446;41.490;22.098;2023-05-10T07:10:03;13.41;80.40
70826;SHT31;58446;41.490;22.098;2023-05-10T07:12:29;13.34;79.90
70826;SHT31;58446;41.490;22.098;2023-05-10T07:14:55;13.38;80.25
70826;SHT31;58446;41.490;22.098;2023-05-10T07:17:20;13.34;80.50
70826;SHT31;58446;41.490;22.098;2023-05-10T07:19:46;13.44;80.30
70826;SHT31;58446;41.490;22.098;2023-05-10T07:22:12;13.54;79.50
70826;SHT31;58446;41.490;22.098;2023-05-10T07:24:38;13.53;79.61
70826;SHT31;58446;41.490;22.098;2023-05-10T07:27:04;13.48;78.99
70826;SHT31;58446;41.490;22.098;2023-05-10T07:29:29;13.46;78.86
70826;SHT31;58446;41.490;22.098;2023-05-10T07:31:55;13.54;79.36
70826;SHT31;58446;41.490;22.098;2023-05-10T07:34:21;13.59;79.45
70826;SHT31;58446;41.490;22.098;2023-05-10T07:36:46;13.57;78.18
70826;SHT31;58446;41.490;22.098;2023-05-10T07:39:12;13.67;78.60
70826;SHT31;58446;41.490;22.098;2023-05-10T07:41:38;13.69;78.61
70826;SHT31;58446;41.490;22.098;2023-05-10T07:44:05;13.65;78.57
70826;SHT31;58446;41.490;22.098;2023-05-10T07:46:31;13.67;79.26
70826;SHT31;58446;41.490;22.098;2023-05-10T07:48:57;13.69;78.68
70826;SHT31;58446;41.490;22.098;2023-05-10T07:51:22;13.72;78.22
70826;SHT31;58446;41.490;22.098;2023-05-10T07:53:48;13.77;78.25
70826;SHT31;58446;41.490;22.098;2023-05-10T07:56:26;13.81;78.40
70826;SHT31;58446;41.490;22.098;2023-05-10T07:58:55;13.81;78.28
70826;SHT31;58446;41.490;22.098;2023-05-10T08:01:21;13.86;78.36
70826;SHT31;58446;41.490;22.098;2023-05-10T08:03:47;13.83;78.16
70826;SHT31;58446;41.490;22.098;2023-05-10T08:06:14;13.89;77.85
70826;SHT31;58446;41.490;22.098;2023-05-10T08:08:41;13.85;78.12
70826;SHT31;58446;41.490;22.098;2023-05-10T08:11:06;13.89;77.34
70826;SHT31;58446;41.490;22.098;2023-05-10T08:13:35;13.89;78.18
70826;SHT31;58446;41.490;22.098;2023-05-10T08:16:01;13.85;78.21
70826;SHT31;58446;41.490;22.098;2023-05-10T08:18:26;13.88;78.05
70826;SHT31;58446;41.490;22.098;2023-05-10T08:20:52;13.92;77.88
70826;SHT31;58446;41.490;22.098;2023-05-10T08:23:18;13.86;77.16
70826;SHT31;58446;41.490;22.098;2023-05-10T08:25:44;13.96;77.49
70826;SHT31;58446;41.490;22.098;2023-05-10T08:28:09;13.99;78.43
70826;SHT31;58446;41.490;22.098;2023-05-10T08:30:35;14.09;77.64
70826;SHT31;58446;41.490;22.098;2023-05-10T08:33:01;14.08;77.61
70826;SHT31;58446;41.490;22.098;2023-05-10T08:35:26;14.15;77.96
70826;SHT31;58446;41.490;22.098;2023-05-10T08:37:52;14.13;77.69
70826;SHT31;58446;41.490;22.098;2023-05-10T08:40:19;14.19;77.57
70826;SHT31;58446;41.490;22.098;2023-05-10T08:42:57;14.10;77.57
70826;SHT31;58446;41.490;22.098;2023-05-10T08:45:24;14.09;78.11
70826;SHT31;58446;41.490;22.098;2023-05-10T08:47:51;14.10;76.90
70826;SHT31;58446;41.490;22.098;2023-05-10T08:50:19;14.06;76.99
70826;SHT31;58446;41.490;22.098;2023-05-10T08:52:46;14.10;76.74
70826;SHT31;58446;41.490;22.098;2023-05-10T08:55:14;14.09;77.04
70826;SHT31;58446;41.490;22.098;2023-05-10T08:57:40;14.05;76.80
70826;SHT31;58446;41.490;22.098;2023-05-10T09:00:07;13.99;76.90
70826;SHT31;58446;41.490;22.098;2023-05-10T09:02:34;13.99;76.74
70826;SHT31;58446;41.490;22.098;2023-05-10T09:05:00;14.04;77.71
70826;SHT31;58446;41.490;22.098;2023-05-10T09:07:26;14.13;76.91
70826;SHT31;58446;41.490;22.098;2023-05-10T09:09:53;14.23;77.14
70826;SHT31;58446;41.490;22.098;2023-05-10T09:12:19;14.30;76.11
70826;SHT31;58446;41.490;22.098;2023-05-10T09:14:45;14.25;76.64
70826;SHT31;58446;41.490;22.098;2023-05-10T09:17:11;14.25;76.76
70826;SHT31;58446;41.490;22.098;2023-05-10T09:19:37;14.36;76.43
70826;SHT31;58446;41.490;22.098;2023-05-10T09:22:03;14.37;76.12
70826;SHT31;58446;41.490;22.098;2023-05-10T09:24:30;14.41;75.02
70826;SHT31;58446;41.490;22.098;2023-05-10T09:26:57;14.47;75.28
70826;SHT31;58446;41.490;22.098;2023-05-10T09:29:23;14.60;75.20
70826;SHT31;58446;41.490;22.098;2023-05-10T09:31:51;14.63;74.34
70826;SHT31;58446;41.490;22.098;2023-05-10T09:34:31;14.76;75.14
70826;SHT31;58446;41.490;22.098;2023-05-10T09:37:02;14.77;74.11
70826;SHT31;58446;41.490;22.098;2023-05-10T09:41:59;14.81;73.56
70826;SHT31;58446;41.490;22.098;2023-05-10T09:44:26;14.80;74.63
70826;SHT31;58446;41.490;22.098;2023-05-10T09:46:52;14.78;73.83
70826;SHT31;58446;41.490;22.098;2023-05-10T09:49:20;14.73;73.88
70826;SHT31;58446;41.490;22.098;2023-05-10T09:51:46;14.70;74.06
70826;SHT31;58446;41.490;22.098;2023-05-10T09:54:13;14.71;74.61
70826;SHT31;58446;41.490;22.098;2023-05-10T09:56:40;14.77;74.58
70826;SHT31;58446;41.490;22.098;2023-05-10T09:59:12;14.66;72.48
70826;SHT31;58446;41.490;22.098;2023-05-10T10:01:38;14.63;72.83
70826;SHT31;58446;41.490;22.098;2023-05-10T10:04:05;14.70;72.41
70826;SHT31;58446;41.490;22.098;2023-05-10T10:06:38;14.63;71.94
70826;SHT31;58446;41.490;22.098;2023-05-10T10:09:05;14.68;72.62
70826;SHT31;58446;41.490;22.098;2023-05-10T10:11:35;14.57;72.21
70826;SHT31;58446;41.490;22.098;2023-05-10T10:14:01;14.60;71.57
70826;SHT31;58446;41.490;22.098;2023-05-10T10:16:28;14.63;72.30
70826;SHT31;58446;41.490;22.098;2023-05-10T10:18:55;14.67;71.89
70826;SHT31;58446;41.490;22.098;2023-05-10T10:21:22;14.68;72.54
70826;SHT31;58446;41.490;22.098;2023-05-10T10:23:47;14.78;72.44
70826;SHT31;58446;41.490;22.098;2023-05-10T10:26:15;14.77;72.18
70826;SHT31;58446;41.490;22.098;2023-05-10T10:31:40;14.81;71.70
70826;SHT31;58446;41.490;22.098;2023-05-10T10:37:04;14.78;72.33
70826;SHT31;58446;41.490;22.098;2023-05-10T10:39:32;14.81;73.45
70826;SHT31;58446;41.490;22.098;2023-05-10T10:41:58;14.85;72.91
70826;SHT31;58446;41.490;22.098;2023-05-10T10:44:25;14.87;72.79
70826;SHT31;58446;41.490;22.098;2023-05-10T10:52:31;14.67;73.57
70826;SHT31;58446;41.490;22.098;2023-05-10T10:55:06;14.64;73.11
70826;SHT31;58446;41.490;22.098;2023-05-10T11:03:11;14.71;74.09
70826;SHT31;58446;41.490;22.098;2023-05-10T11:05:46;14.74;73.26
70826;SHT31;58446;41.490;22.098;2023-05-10T11:08:25;14.77;73.76
70826;SHT31;58446;41.490;22.098;2023-05-10T11:10:54;14.71;72.93
70826;SHT31;58446;41.490;22.098;2023-05-10T11:13:45;14.67;73.65
70826;SHT31;58446;41.490;22.098;2023-05-10T11:16:19;14.66;73.75
70826;SHT31;58446;41.490;22.098;2023-05-10T11:19:05;14.64;73.49
70826;SHT31;58446;41.490;22.098;2023-05-10T11:21:33;14.67;73.28
70826;SHT31;58446;41.490;22.098;2023-05-10T11:24:01;14.68;74.26
70826;SHT31;58446;41.490;22.098;2023-05-10T11:26:34;14.80;74.20
70826;SHT31;58446;41.490;22.098;2023-05-10T11:29:00;14.88;74.38
70826;SHT31;58446;41.490;22.098;2023-05-10T11:31:28;14.88;73.46
70826;SHT31;58446;41.490;22.098;2023-05-10T11:33:58;14.94;73.82
70826;SHT31;58446;41.490;22.098;2023-05-10T11:36:26;14.95;74.05
70826;SHT31;58446;41.490;22.098;2023-05-10T11:38:53;14.98;74.18
70826;SHT31;58446;41.490;22.098;2023-05-10T11:41:20;14.95;74.31
70826;SHT31;58446;41.490;22.098;2023-05-10T11:43:52;15.01;73.96
70826;SHT31;58446;41.490;22.098;2023-05-10T11:46:21;15.08;73.87
70826;SHT31;58446;41.490;22.098;2023-05-10T11:48:49;15.19;73.71
70826;SHT31;58446;41.490;22.098;2023-05-10T11:51:23;15.27;72.75
70826;SHT31;58446;41.490;22.098;2023-05-10T11:53:58;15.31;72.70
70826;SHT31;58446;41.490;22.098;2023-05-10T11:56:24;15.29;72.21
70826;SHT31;58446;41.490;22.098;2023-05-10T11:58:55;15.31;73.45
70826;SHT31;58446;41.490;22.098;2023-05-10T12:01:22;15.42;73.34
70826;SHT31;58446;41.490;22.098;2023-05-10T12:03:50;15.53;73.67
70826;SHT31;58446;41.490;22.098;2023-05-10T12:06:18;15.69;74.20
70826;SHT31;58446;41.490;22.098;2023-05-10T12:08:48;15.66;73.28
70826;SHT31;58446;41.490;22.098;2023-05-10T12:11:17;15.55;73.19
70826;SHT31;58446;41.490;22.098;2023-05-10T12:13:44;15.60;71.70
70826;SHT31;58446;41.490;22.098;2023-05-10T12:16:17;15.67;70.55
70826;SHT31;58446;41.490;22.098;2023-05-10T12:18:43;15.74;69.23
70826;SHT31;58446;41.490;22.098;2023-05-10T12:21:10;15.79;69.59
70826;SHT31;58446;41.490;22.098;2023-05-10T12:23:37;15.86;70.75
70826;SHT31;58446;41.490;22.098;2023-05-10T12:26:03;15.83;70.09
70826;SHT31;58446;41.490;22.098;2023-05-10T12:28:31;15.80;70.34
70826;SHT31;58446;41.490;22.098;2023-05-10T12:30:57;15.82;70.02
70826;SHT31;58446;41.490;22.098;2023-05-10T12:33:24;15.73;69.53
70826;SHT31;58446;41.490;22.098;2023-05-10T12:35:52;15.71;69.61
70826;SHT31;58446;41.490;22.098;2023-05-10T12:38:38;15.85;69.99
70826;SHT31;58446;41.490;22.098;2023-05-10T12:41:11;15.87;69.97
70826;SHT31;58446;41.490;22.098;2023-05-10T12:43:38;16.00;69.97
70826;SHT31;58446;41.490;22.098;2023-05-10T12:46:08;16.04;69.51
70826;SHT31;58446;41.490;22.098;2023-05-10T12:48:35;16.07;70.40
70826;SHT31;58446;41.490;22.098;2023-05-10T12:51:01;16.16;69.19
70826;SHT31;58446;41.490;22.098;2023-05-10T12:53:27;16.16;69.76
70826;SHT31;58446;41.490;22.098;2023-05-10T12:55:53;16.08;69.11
70826;SHT31;58446;41.490;22.098;2023-05-10T12:58:19;16.08;69.32
70826;SHT31;58446;41.490;22.098;2023-05-10T13:00:46;16.11;68.93
70826;SHT31;58446;41.490;22.098;2023-05-10T13:03:11;16.07;68.30
70826;SHT31;58446;41.490;22.098;2023-05-10T13:05:37;16.14;69.20
70826;SHT31;58446;41.490;22.098;2023-05-10T13:08:03;16.22;69.15
70826;SHT31;58446;41.490;22.098;2023-05-10T13:10:30;16.16;68.20
70826;SHT31;58446;41.490;22.098;2023-05-10T13:12:57;16.20;68.28
70826;SHT31;58446;41.490;22.098;2023-05-10T13:15:23;16.22;68.98
70826;SHT31;58446;41.490;22.098;2023-05-10T13:17:48;16.32;68.82
70826;SHT31;58446;41.490;22.098;2023-05-10T13:20:14;16.34;68.65
70826;SHT31;58446;41.490;22.098;2023-05-10T13:22:41;16.31;68.50
70826;SHT31;58446;41.490;22.098;2023-05-10T13:25:07;16.21;68.65
70826;SHT31;58446;41.490;22.098;2023-05-10T13:27:33;16.24;67.58
70826;SHT31;58446;41.490;22.098;2023-05-10T13:29:59;16.14;67.74
70826;SHT31;58446;41.490;22.098;2023-05-10T13:32:25;16.06;68.37
70826;SHT31;58446;41.490;22.098;2023-05-10T13:34:51;16.11;68.88
70826;SHT31;58446;41.490;22.098;2023-05-10T13:37:17;16.03;68.50
70826;SHT31;58446;41.490;22.098;2023-05-10T13:39:42;16.03;69.56
70826;SHT31;58446;41.490;22.098;2023-05-10T13:42:08;16.03;67.78
70826;SHT31;58446;41.490;22.098;2023-05-10T13:44:34;16.00;68.37
70826;SHT31;58446;41.490;22.098;2023-05-10T13:47:01;16.00;67.65
70826;SHT31;58446;41.490;22.098;2023-05-10T13:49:27;15.98;67.93
70826;SHT31;58446;41.490;22.098;2023-05-10T13:51:52;15.98;68.50
70826;SHT31;58446;41.490;22.098;2023-05-10T13:54:18;16.03;67.59
70826;SHT31;58446;41.490;22.098;2023-05-10T13:56:45;16.03;68.14
70826;SHT31;58446;41.490;22.098;2023-05-10T13:59:12;15.97;68.42
70826;SHT31;58446;41.490;22.098;2023-05-10T14:01:42;16.08;69.22
70826;SHT31;58446;41.490;22.098;2023-05-10T14:04:08;16.11;68.95
70826;SHT31;58446;41.490;22.098;2023-05-10T14:06:38;16.08;67.99
70826;SHT31;58446;41.490;22.098;2023-05-10T14:09:03;16.06;67.48
70826;SHT31;58446;41.490;22.098;2023-05-10T14:11:29;16.11;68.27
70826;SHT31;58446;41.490;22.098;2023-05-10T14:13:55;16.22;68.30
70826;SHT31;58446;41.490;22.098;2023-05-10T14:16:21;16.13;67.87
70826;SHT31;58446;41.490;22.098;2023-05-10T14:18:46;16.07;67.35
70826;SHT31;58446;41.490;22.098;2023-05-10T14:21:12;15.98;67.32
70826;SHT31;58446;41.490;22.098;2023-05-10T14:23:38;16.01;67.81
70826;SHT31;58446;41.490;22.098;2023-05-10T14:26:04;15.94;67.35
70826;SHT31;58446;41.490;22.098;2023-05-10T14:28:30;15.85;67.16
70826;SHT31;58446;41.490;22.098;2023-05-10T14:30:56;15.87;66.81
70826;SHT31;58446;41.490;22.098;2023-05-10T14:33:22;15.93;66.75
70826;SHT31;58446;41.490;22.098;2023-05-10T14:35:48;15.93;67.22
70826;SHT31;58446;41.490;22.098;2023-05-10T14:38:15;15.89;66.26
70826;SHT31;58446;41.490;22.098;2023-05-10T14:40:41;15.90;66.20
70826;SHT31;58446;41.490;22.098;2023-05-10T14:43:07;15.96;65.56
70826;SHT31;58446;41.490;22.098;2023-05-10T14:45:33;15.94;66.07
70826;SHT31;58446;41.490;22.098;2023-05-10T14:48:00;15.97;66.05
70826;SHT31;58446;41.490;22.098;2023-05-10T14:50:25;15.97;66.25
70826;SHT31;58446;41.490;22.098;2023-05-10T14:52:51;16.00;66.51
70826;SHT31;58446;41.490;22.098;2023-05-10T14:55:17;15.97;65.95
70826;SHT31;58446;41.490;22.098;2023-05-10T14:57:42;16.01;66.65
70826;SHT31;58446;41.490;22.098;2023-05-10T15:00:09;15.96;66.03
70826;SHT31;58446;41.490;22.098;2023-05-10T15:02:35;15.93;66.93
70826;SHT31;58446;41.490;22.098;2023-05-10T15:05:02;15.91;66.24
70826;SHT31;58446;41.490;22.098;2023-05-10T15:07:29;15.87;66.75
70826;SHT31;58446;41.490;22.098;2023-05-10T15:09:56;15.89;66.50
70826;SHT31;58446;41.490;22.098;2023-05-10T15:12:22;15.90;66.85
70826;SHT31;58446;41.490;22.098;2023-05-10T15:14:48;15.89;66.13
70826;SHT31;58446;41.490;22.098;2023-05-10T15:17:13;15.91;66.77
70826;SHT31;58446;41.490;22.098;2023-05-10T15:19:39;15.93;65.80
70826;SHT31;58446;41.490;22.098;2023-05-10T15:22:05;15.91;66.17
70826;SHT31;58446;41.490;22.098;2023-05-10T15:24:31;15.94;66.61
70826;SHT31;58446;41.490;22.098;2023-05-10T15:26:57;15.96;66.07
70826;SHT31;58446;41.490;22.098;2023-05-10T15:29:22;15.94;65.97
70826;SHT31;58446;41.490;22.098;2023-05-10T15:31:49;15.89;65.54
70826;SHT31;58446;41.490;22.098;2023-05-10T15:34:16;15.91;66.28
70826;SHT31;58446;41.490;22.098;2023-05-10T15:36:43;15.90;66.69
70826;SHT31;58446;41.490;22.098;2023-05-10T15:39:09;15.87;67.00
70826;SHT31;58446;41.490;22.098;2023-05-10T15:41:35;15.82;66.96
70826;SHT31;58446;41.490;22.098;2023-05-10T15:44:01;15.85;66.95
70826;SHT31;58446;41.490;22.098;2023-05-10T15:46:28;15.80;66.93
70826;SHT31;58446;41.490;22.098;2023-05-10T15:48:56;15.82;67.22
70826;SHT31;58446;41.490;22.098;2023-05-10T15:51:22;15.80;67.17
70826;SHT31;58446;41.490;22.098;2023-05-10T15:53:48;15.79;67.08
70826;SHT31;58446;41.490;22.098;2023-05-10T15:56:14;15.74;67.50
70826;SHT31;58446;41.490;22.098;2023-05-10T15:58:40;15.74;67.25